createdAt,value
2023-02-14T00:01:32.351Z,62.70
2023-02-14T00:04:00.709Z,65.97
2023-02-14T00:06:31.285Z,74.10
2023-02-14T00:09:00.358Z,78.90
2023-02-14T00:11:28.973Z,91.00
2023-02-14T00:13:57.713Z,115.05
2023-02-14T00:16:26.060Z,82.43
2023-02-14T00:18:54.368Z,52.50
2023-02-14T00:21:22.517Z,51.65
2023-02-14T00:23:50.705Z,36.08
2023-02-14T00:26:19.008Z,41.08
2023-02-14T00:28:48.325Z,94.47
2023-02-14T00:31:17.383Z,124.45
2023-02-14T00:33:45.636Z,113.53
2023-02-14T00:36:14.519Z,220.27
2023-02-14T00:38:42.902Z,120.45
2023-02-14T00:41:10.979Z,153.93
2023-02-14T00:43:39.343Z,157.13
2023-02-14T00:46:07.533Z,135.32
2023-02-14T00:48:35.869Z,139.43
2023-02-14T00:51:04.375Z,96.80
2023-02-14T00:53:32.780Z,78.30
2023-02-14T00:56:01.105Z,86.40
2023-02-14T00:58:29.546Z,98.10
2023-02-14T01:00:58.829Z,72.53
2023-02-14T01:03:27.716Z,58.17
2023-02-14T01:05:55.984Z,53.25
2023-02-14T01:08:25.036Z,45.55
2023-02-14T01:10:53.447Z,44.42
2023-02-14T01:13:21.860Z,47.13
2023-02-14T01:15:52.320Z,52.28
2023-02-14T01:18:20.649Z,51.88
2023-02-14T01:20:49.789Z,69.45
2023-02-14T01:23:18.154Z,109.30
2023-02-14T01:25:46.603Z,77.18
2023-02-14T01:28:14.719Z,66.03
2023-02-14T01:30:43.091Z,45.30
2023-02-14T01:33:11.365Z,52.95
2023-02-14T01:35:39.684Z,51.55
2023-02-14T01:38:08.060Z,45.05
2023-02-14T01:40:42.608Z,44.00
2023-02-14T01:43:16.915Z,42.35
2023-02-14T01:45:46.127Z,39.58
2023-02-14T01:48:15.094Z,38.05
2023-02-14T01:50:46.004Z,35.95
2023-02-14T01:53:20.307Z,36.38
2023-02-14T01:55:53.888Z,39.38
2023-02-14T01:58:27.407Z,42.17
2023-02-14T02:00:56.344Z,41.33
2023-02-14T02:03:36.502Z,39.72
2023-02-14T02:06:10.868Z,45.45
2023-02-14T02:08:46.684Z,41.38
2023-02-14T02:11:14.954Z,42.65
2023-02-14T02:13:43.196Z,47.92
2023-02-14T02:16:36.661Z,47.90
2023-02-14T02:19:33.104Z,48.97
2023-02-14T02:22:10.253Z,45.25
2023-02-14T02:25:02.913Z,39.83
2023-02-14T02:28:14.746Z,35.63
2023-02-14T02:31:04.851Z,37.83
2023-02-14T02:34:03.623Z,39.40
2023-02-14T02:36:44.155Z,41.33
2023-02-14T02:39:42.987Z,39.97
2023-02-14T02:42:21.382Z,36.28
2023-02-14T02:45:28.105Z,37.13
2023-02-14T02:48:16.021Z,33.92
2023-02-14T02:50:53.771Z,32.20
2023-02-14T02:53:48.930Z,28.85
2023-02-14T02:56:28.392Z,29.20
2023-02-14T02:59:21.810Z,30.17
2023-02-14T03:02:18.935Z,30.67
2023-02-14T03:04:56.253Z,28.25
2023-02-14T03:07:41.183Z,26.42
2023-02-14T03:10:23.644Z,27.73
2023-02-14T03:13:30.463Z,27.02
2023-02-14T03:16:17.380Z,24.25
2023-02-14T03:18:56.557Z,27.48
2023-02-14T03:22:08.349Z,28.25
2023-02-14T03:24:57.808Z,29.27
2023-02-14T03:27:50.710Z,29.77
2023-02-14T03:30:35.681Z,32.03
2023-02-14T03:33:29.462Z,30.65
2023-02-14T03:36:16.240Z,29.45
2023-02-14T03:39:23.031Z,27.95
2023-02-14T03:42:09.594Z,25.95
2023-02-14T03:44:41.249Z,23.85
2023-02-14T03:47:17.522Z,23.58
2023-02-14T03:50:11.243Z,22.25
2023-02-14T03:52:40.879Z,22.17
2023-02-14T03:55:10.353Z,21.08
2023-02-14T03:57:41.564Z,47.42
2023-02-14T04:00:10.619Z,43.92
2023-02-14T04:02:48.869Z,39.47
2023-02-14T04:05:23.530Z,34.20
2023-02-14T04:07:55.418Z,41.67
2023-02-14T04:10:25.135Z,41.58
2023-02-14T04:12:53.687Z,39.85
2023-02-14T04:15:21.910Z,43.85
2023-02-14T04:17:50.270Z,47.13
2023-02-14T04:20:18.778Z,44.55
2023-02-14T04:22:47.064Z,50.28
2023-02-14T04:25:16.036Z,57.55
2023-02-14T04:27:44.611Z,53.35
2023-02-14T04:30:13.500Z,39.88
2023-02-14T04:32:41.797Z,29.08
2023-02-14T04:35:09.911Z,27.20
2023-02-14T04:37:38.449Z,30.88
2023-02-14T04:40:07.412Z,34.35
2023-02-14T04:42:35.826Z,36.65
2023-02-14T04:45:04.519Z,34.63
2023-02-14T04:47:32.818Z,35.60
2023-02-14T04:50:01.174Z,40.70
2023-02-14T04:52:29.513Z,43.63
2023-02-14T04:54:57.740Z,45.42
2023-02-14T04:57:26.079Z,54.40
2023-02-14T04:59:54.201Z,51.38
2023-02-14T05:02:22.773Z,60.63
2023-02-14T05:04:51.123Z,62.90
2023-02-14T05:07:19.321Z,60.08
2023-02-14T05:09:47.538Z,57.13
2023-02-14T05:12:17.007Z,52.95
2023-02-14T05:14:45.226Z,52.05
2023-02-14T05:17:13.636Z,44.95
2023-02-14T05:19:42.160Z,47.25
2023-02-14T05:22:10.350Z,44.33
2023-02-14T05:24:38.683Z,41.30
2023-02-14T05:27:07.012Z,42.08
2023-02-14T05:29:36.385Z,37.97
2023-02-14T05:32:04.870Z,36.00
2023-02-14T05:34:33.312Z,34.53
2023-02-14T05:37:01.559Z,39.03
2023-02-14T05:39:29.829Z,37.78
2023-02-14T05:41:59.327Z,43.35
2023-02-14T05:44:27.663Z,43.42
2023-02-14T05:46:56.007Z,48.72
2023-02-14T05:49:30.416Z,47.53
2023-02-14T05:51:59.039Z,43.55
2023-02-14T05:54:27.307Z,38.45
2023-02-14T05:56:55.502Z,40.03
2023-02-14T05:59:23.846Z,37.85
2023-02-14T06:01:52.029Z,38.30
2023-02-14T06:07:35.733Z,38.97
2023-02-14T06:10:59.400Z,44.10
2023-02-14T06:13:27.883Z,42.55
2023-02-14T06:15:56.050Z,37.45
2023-02-14T06:18:27.178Z,31.98
2023-02-14T06:20:55.580Z,30.83
2023-02-14T06:23:23.957Z,30.33
2023-02-14T06:25:52.165Z,28.67
2023-02-14T06:28:20.532Z,28.63
2023-02-14T06:30:49.388Z,31.55
2023-02-14T06:33:17.876Z,29.77
2023-02-14T06:35:46.099Z,40.28
2023-02-14T06:38:14.195Z,38.53
2023-02-14T06:40:42.557Z,39.10
2023-02-14T06:43:10.690Z,39.20
2023-02-14T06:45:38.932Z,36.28
2023-02-14T06:48:07.344Z,36.55
2023-02-14T06:50:36.234Z,36.60
2023-02-14T06:53:04.563Z,34.17
2023-02-14T06:55:33.056Z,33.33
2023-02-14T06:58:01.296Z,32.55
2023-02-14T07:00:29.625Z,33.30
2023-02-14T07:03:01.456Z,31.50
2023-02-14T07:05:32.202Z,31.10
2023-02-14T07:10:39.488Z,29.73
2023-02-14T07:13:07.701Z,35.70
2023-02-14T07:15:41.862Z,30.65
2023-02-14T07:18:19.293Z,28.48
2023-02-14T07:20:57.384Z,31.40
2023-02-14T07:23:26.017Z,32.63
2023-02-14T07:25:55.565Z,31.73
2023-02-14T07:28:23.884Z,30.95
2023-02-14T07:30:52.382Z,35.03
2023-02-14T07:33:20.933Z,35.03
2023-02-14T07:35:51.213Z,32.97
2023-02-14T07:38:19.424Z,30.10
2023-02-14T07:40:47.761Z,26.90
2023-02-14T07:43:15.859Z,25.25
2023-02-14T07:45:44.197Z,24.58
2023-02-14T07:48:12.649Z,24.30
2023-02-14T07:50:41.034Z,23.42
2023-02-14T07:53:09.268Z,24.23
2023-02-14T07:55:37.853Z,24.88
2023-02-14T07:58:06.100Z,25.83
2023-02-14T08:00:34.630Z,25.25
2023-02-14T08:03:03.050Z,27.05
2023-02-14T08:05:31.286Z,26.23
2023-02-14T08:07:59.856Z,25.75
2023-02-14T08:10:28.163Z,26.33
2023-02-14T08:12:56.459Z,27.40
2023-02-14T08:15:35.768Z,30.58
2023-02-14T08:18:04.122Z,34.55
2023-02-14T08:20:32.604Z,39.42
2023-02-14T08:23:00.880Z,48.70
2023-02-14T08:25:29.250Z,51.60
2023-02-14T08:27:57.511Z,45.17
2023-02-14T08:30:25.915Z,41.15
2023-02-14T08:32:54.505Z,30.08
2023-02-14T08:35:24.453Z,29.38
2023-02-14T08:37:54.365Z,26.63
2023-02-14T08:40:22.912Z,28.73
2023-02-14T08:42:51.174Z,26.35
2023-02-14T08:45:19.690Z,27.67
2023-02-14T08:47:47.978Z,26.33
2023-02-14T08:50:19.190Z,29.00
2023-02-14T08:52:47.488Z,29.63
2023-02-14T08:55:15.783Z,29.23
2023-02-14T08:57:44.095Z,29.10
2023-02-14T09:00:13.064Z,28.20
2023-02-14T09:02:41.483Z,28.48
2023-02-14T09:05:09.683Z,25.25
2023-02-14T09:07:38.151Z,27.80
2023-02-14T09:10:07.392Z,26.52
2023-02-14T09:12:36.963Z,27.48
2023-02-14T09:15:05.425Z,34.35
2023-02-14T09:17:36.584Z,36.78
2023-02-14T09:20:10.356Z,35.08
2023-02-14T09:22:39.325Z,36.83
2023-02-14T09:25:08.067Z,35.97
2023-02-14T09:27:36.481Z,35.53
2023-02-14T09:30:06.244Z,36.22
2023-02-14T09:32:34.559Z,39.35
2023-02-14T09:35:02.986Z,34.75
2023-02-14T09:37:31.318Z,30.67
2023-02-14T09:39:59.705Z,25.67
2023-02-14T09:43:01.938Z,29.67
2023-02-14T09:48:18.665Z,28.73
2023-02-14T09:50:54.704Z,29.63
2023-02-14T09:53:46.953Z,27.88
2023-02-14T09:56:26.702Z,30.65
2023-02-14T09:59:36.690Z,25.35
2023-02-14T10:02:17.197Z,29.27
2023-02-14T10:05:09.015Z,31.60
2023-02-14T10:08:10.744Z,30.27
2023-02-14T10:10:46.068Z,29.57
2023-02-14T10:13:41.573Z,29.67
2023-02-14T10:16:41.892Z,33.97
2023-02-14T10:19:22.028Z,32.58
2023-02-14T10:21:53.776Z,34.60
2023-02-14T10:24:47.593Z,28.55
2023-02-14T10:27:34.136Z,30.25
2023-02-14T10:30:03.728Z,25.88
2023-02-14T10:32:50.305Z,38.55
2023-02-14T10:35:42.234Z,36.15
2023-02-14T10:38:22.710Z,27.52
2023-02-14T10:41:25.405Z,35.05
2023-02-14T10:44:21.550Z,26.08
2023-02-14T10:47:23.982Z,25.77
2023-02-14T10:50:03.429Z,24.05
2023-02-14T10:52:51.272Z,27.77
2023-02-14T10:55:33.026Z,28.95
2023-02-14T10:58:06.368Z,29.00
2023-02-14T11:00:38.437Z,24.83
2023-02-14T11:05:46.586Z,21.65
2023-02-14T11:08:39.537Z,20.20
2023-02-14T11:11:32.947Z,24.58
2023-02-14T11:14:18.585Z,21.45
2023-02-14T11:16:46.933Z,23.05
2023-02-14T11:19:29.248Z,25.65
2023-02-14T11:22:00.541Z,25.27
2023-02-14T11:24:40.110Z,21.48
2023-02-14T11:27:11.252Z,22.15
2023-02-14T11:29:42.353Z,19.70
2023-02-14T11:32:16.902Z,24.25
2023-02-14T11:35:20.719Z,22.75
2023-02-14T11:37:53.207Z,21.85
2023-02-14T11:40:32.583Z,23.05
2023-02-14T11:43:14.747Z,25.88
2023-02-14T11:45:49.435Z,22.33
2023-02-14T11:48:39.491Z,19.13
2023-02-14T11:51:10.868Z,21.13
2023-02-14T11:53:39.189Z,23.52
2023-02-14T11:56:08.346Z,23.65
2023-02-14T11:58:39.339Z,22.77
2023-02-14T12:01:12.120Z,22.13
2023-02-14T12:03:46.874Z,21.80
2023-02-14T12:06:29.939Z,23.63
2023-02-14T12:09:23.068Z,20.40
2023-02-14T12:12:05.321Z,20.77
2023-02-14T12:14:35.543Z,19.40
2023-02-14T12:17:42.460Z,24.20
2023-02-14T12:20:23.851Z,22.55
2023-02-14T12:23:00.970Z,22.38
2023-02-14T12:25:42.556Z,23.13
2023-02-14T12:28:16.251Z,23.48
2023-02-14T12:30:44.644Z,25.27
2023-02-14T12:33:24.250Z,23.80
2023-02-14T12:36:39.297Z,21.80
2023-02-14T12:39:27.056Z,24.98
2023-02-14T12:42:05.870Z,22.75
2023-02-14T12:45:07.927Z,20.38
2023-02-14T12:47:57.447Z,22.98
2023-02-14T12:50:39.010Z,22.67
2023-02-14T12:53:40.489Z,22.10
2023-02-14T12:56:26.889Z,21.80
2023-02-14T12:59:19.659Z,21.65
2023-02-14T13:02:32.654Z,28.48
2023-02-14T13:05:07.171Z,25.08
2023-02-14T13:07:41.378Z,25.48
2023-02-14T13:10:13.040Z,26.50
2023-02-14T13:12:46.946Z,27.00
2023-02-14T13:15:35.294Z,25.20
2023-02-14T13:18:15.266Z,26.90
2023-02-14T13:20:57.365Z,25.90
2023-02-14T13:26:22.073Z,20.63
2023-02-14T13:29:03.627Z,23.55
2023-02-14T13:31:32.943Z,24.48
2023-02-14T13:34:14.372Z,22.75
2023-02-14T13:36:43.682Z,25.50
2023-02-14T13:39:23.428Z,23.10
2023-02-14T13:43:02.493Z,26.85
2023-02-14T13:45:30.825Z,24.63
2023-02-14T13:48:19.328Z,24.58
2023-02-14T13:51:01.393Z,26.27
2023-02-14T13:53:37.495Z,26.90
2023-02-14T13:56:07.512Z,26.85
2023-02-14T13:58:36.135Z,23.50
2023-02-14T14:01:33.953Z,26.65
2023-02-14T14:04:31.111Z,25.75
2023-02-14T14:07:21.375Z,26.27
2023-02-14T14:09:53.358Z,29.38
2023-02-14T14:15:17.070Z,24.40
2023-02-14T14:18:09.460Z,27.52
2023-02-14T14:20:47.011Z,25.88
2023-02-14T14:23:35.534Z,25.75
2023-02-14T14:26:24.626Z,27.88
2023-02-14T14:28:52.982Z,28.10
2023-02-14T14:31:22.849Z,29.75
2023-02-14T14:34:00.704Z,25.60
2023-02-14T14:36:28.938Z,30.25
2023-02-14T14:38:57.118Z,29.50
2023-02-14T14:41:30.227Z,29.23
2023-02-14T14:44:00.373Z,31.75
2023-02-14T14:46:29.102Z,31.08
2023-02-14T14:48:58.127Z,31.70
2023-02-14T14:51:33.375Z,31.83
2023-02-14T14:54:06.447Z,25.73
2023-02-14T14:56:41.437Z,28.20
2023-02-14T14:59:20.799Z,30.13
2023-02-14T15:01:51.981Z,30.20
2023-02-14T15:04:32.945Z,27.33
2023-02-14T15:07:21.191Z,28.77
2023-02-14T15:09:49.545Z,26.48
2023-02-14T15:13:52.012Z,31.08
2023-02-14T15:16:33.494Z,32.35
2023-02-14T15:19:09.749Z,35.63
2023-02-14T15:21:42.026Z,40.13
2023-02-14T15:24:17.568Z,36.72
2023-02-14T15:26:48.244Z,35.92
2023-02-14T15:29:25.971Z,34.63
2023-02-14T15:31:57.875Z,32.20
2023-02-14T15:34:31.776Z,24.63
2023-02-14T15:37:01.330Z,31.08
2023-02-14T15:39:39.193Z,25.08
2023-02-14T15:42:19.982Z,26.30
2023-02-14T15:44:48.369Z,28.10
2023-02-14T15:47:16.951Z,29.05
2023-02-14T15:49:46.011Z,29.85
2023-02-14T15:52:15.316Z,34.88
2023-02-14T15:54:46.609Z,29.98
2023-02-14T15:57:32.595Z,32.45
2023-02-14T16:00:00.947Z,31.63
2023-02-14T16:02:37.242Z,30.13
2023-02-14T16:05:16.153Z,36.83
2023-02-14T16:08:07.891Z,33.10
2023-02-14T16:10:38.217Z,33.95
2023-02-14T16:13:06.891Z,30.58
2023-02-14T16:15:37.418Z,33.83
2023-02-14T16:18:34.401Z,27.95
2023-02-14T16:21:22.725Z,30.95
2023-02-14T16:24:09.486Z,29.88
2023-02-14T16:26:40.027Z,28.17
2023-02-14T16:29:13.756Z,28.02
2023-02-14T16:34:39.903Z,25.50
2023-02-14T16:37:17.724Z,28.45
2023-02-14T16:39:46.561Z,25.92
2023-02-14T16:42:18.924Z,24.30
2023-02-14T16:44:48.169Z,30.58
2023-02-14T16:47:18.168Z,33.45
2023-02-14T16:49:47.077Z,27.30
2023-02-14T16:52:24.000Z,27.15
2023-02-14T16:54:52.902Z,26.58
2023-02-14T16:57:41.704Z,29.92
2023-02-14T17:00:10.694Z,29.55
2023-02-14T17:02:39.067Z,27.88
2023-02-14T17:05:07.620Z,28.70
2023-02-14T17:07:36.443Z,27.23
2023-02-14T17:10:10.652Z,29.02
2023-02-14T17:12:44.414Z,26.38
2023-02-14T17:15:19.308Z,26.00
2023-02-14T17:17:49.445Z,25.27
2023-02-14T17:20:17.850Z,27.67
2023-02-14T17:22:46.199Z,25.88
2023-02-14T17:25:14.723Z,22.05
2023-02-14T17:28:44.871Z,25.77
2023-02-14T17:31:13.633Z,25.35
2023-02-14T17:33:42.323Z,25.08
2023-02-14T17:36:13.394Z,25.80
2023-02-14T17:38:42.658Z,27.95
2023-02-14T17:41:37.054Z,27.33
2023-02-14T17:44:05.440Z,25.02
2023-02-14T17:46:33.789Z,23.55
2023-02-14T17:49:02.232Z,24.83
2023-02-14T17:51:30.872Z,26.55
2023-02-14T17:53:59.168Z,27.40
2023-02-14T17:56:27.418Z,26.35
2023-02-14T17:58:56.090Z,27.70
2023-02-14T18:01:26.810Z,28.98
2023-02-14T18:03:55.898Z,25.67
2023-02-14T18:06:24.289Z,26.30
2023-02-14T18:08:52.794Z,44.60
2023-02-14T18:11:22.492Z,71.47
2023-02-14T18:13:50.980Z,56.20
2023-02-14T18:16:20.316Z,31.45
2023-02-14T18:18:48.681Z,27.88
2023-02-14T18:21:18.339Z,31.75
2023-02-14T18:23:46.630Z,36.38
2023-02-14T18:26:17.384Z,33.42
2023-02-14T18:28:45.919Z,36.92
2023-02-14T18:31:17.373Z,46.95
2023-02-14T18:33:47.616Z,53.03
2023-02-14T18:36:18.839Z,75.18
2023-02-14T18:38:48.576Z,107.30
2023-02-14T18:41:19.858Z,49.30
2023-02-14T18:43:49.704Z,107.43
2023-02-14T18:46:21.113Z,97.28
2023-02-14T18:48:50.270Z,97.63
2023-02-14T18:51:21.162Z,107.43
2023-02-14T18:53:50.467Z,80.72
2023-02-14T18:56:24.870Z,88.10
2023-02-14T18:58:57.538Z,188.48
2023-02-14T19:01:51.528Z,177.02
2023-02-14T19:04:20.019Z,167.68
2023-02-14T19:06:49.038Z,183.25
2023-02-14T19:09:17.967Z,104.00
2023-02-14T19:11:46.357Z,70.43
2023-02-14T19:14:14.812Z,66.38
2023-02-14T19:16:46.100Z,75.47
2023-02-14T19:19:14.516Z,98.50
2023-02-14T19:21:42.733Z,63.20
2023-02-14T19:24:11.312Z,83.22
2023-02-14T19:26:40.776Z,83.38
2023-02-14T19:29:12.169Z,49.80
2023-02-14T19:31:43.651Z,54.70
2023-02-14T19:34:21.613Z,40.15
2023-02-14T19:36:51.461Z,40.80
2023-02-14T19:39:23.506Z,65.65
2023-02-14T19:44:20.793Z,60.10
2023-02-14T19:46:49.401Z,69.43
2023-02-14T19:49:20.541Z,74.38
2023-02-14T19:51:50.571Z,86.40
2023-02-14T19:54:19.944Z,82.82
2023-02-14T19:56:48.716Z,79.68
2023-02-14T19:59:17.762Z,108.60
2023-02-14T20:01:54.024Z,72.18
2023-02-14T20:04:24.866Z,65.05
2023-02-14T20:06:54.368Z,69.60
2023-02-14T20:09:23.728Z,110.78
2023-02-14T20:11:55.000Z,138.43
2023-02-14T20:14:38.397Z,164.45
2023-02-14T20:17:15.924Z,169.70
2023-02-14T20:19:44.239Z,186.32
2023-02-14T20:22:12.611Z,180.65
2023-02-14T20:24:40.895Z,144.38
2023-02-14T20:27:09.169Z,123.13
2023-02-14T20:29:38.792Z,145.48
2023-02-14T20:32:07.296Z,136.50
2023-02-14T20:34:35.804Z,134.13
2023-02-14T20:37:04.256Z,132.35
2023-02-14T20:39:34.157Z,104.63
2023-02-14T20:42:02.495Z,116.18
2023-02-14T20:44:31.786Z,123.30
2023-02-14T20:47:00.258Z,94.57
2023-02-14T20:49:29.642Z,79.53
2023-02-14T20:51:59.167Z,71.97
2023-02-14T20:54:29.128Z,72.75
2023-02-14T20:56:57.695Z,77.60
2023-02-14T20:59:26.143Z,80.07
2023-02-14T21:01:56.054Z,90.82
2023-02-14T21:04:25.497Z,93.97
2023-02-14T21:06:55.489Z,91.32
2023-02-14T21:09:23.921Z,81.03
2023-02-14T21:11:52.325Z,89.32
2023-02-14T21:14:20.584Z,87.72
2023-02-14T21:16:48.887Z,71.25
2023-02-14T21:19:17.166Z,60.88
2023-02-14T21:21:45.477Z,45.95
2023-02-14T21:24:15.980Z,38.00
2023-02-14T21:26:45.742Z,38.58
2023-02-14T21:29:14.136Z,45.78
2023-02-14T21:31:42.612Z,47.38
2023-02-14T21:34:11.684Z,51.63
2023-02-14T21:36:40.061Z,58.13
2023-02-14T21:39:08.998Z,69.57
2023-02-14T21:41:37.809Z,77.22
2023-02-14T21:44:06.709Z,79.22
2023-02-14T21:46:39.246Z,80.38
2023-02-14T21:49:08.053Z,80.38
2023-02-14T21:51:36.242Z,76.30
2023-02-14T21:54:04.906Z,74.88
2023-02-14T21:56:34.105Z,74.00
2023-02-14T21:59:02.632Z,75.05
2023-02-14T22:01:33.990Z,69.13
2023-02-14T22:04:02.718Z,66.40
2023-02-14T22:06:31.323Z,74.30
2023-02-14T22:09:00.082Z,70.50
2023-02-14T22:11:30.263Z,84.43
2023-02-14T22:13:59.685Z,79.63
2023-02-14T22:16:28.089Z,82.53
2023-02-14T22:18:56.395Z,80.70
2023-02-14T22:21:27.264Z,88.15
2023-02-14T22:23:56.603Z,83.30
2023-02-14T22:26:31.641Z,82.93
2023-02-14T22:29:01.966Z,89.20
2023-02-14T22:31:35.047Z,90.18
2023-02-14T22:34:07.553Z,85.82
2023-02-14T22:36:36.305Z,90.55
2023-02-14T22:39:05.606Z,92.25
2023-02-14T22:41:33.812Z,94.75
2023-02-14T22:44:02.029Z,102.65
2023-02-14T22:46:35.331Z,103.15
2023-02-14T22:49:04.126Z,100.03
2023-02-14T22:51:36.872Z,106.30
2023-02-14T22:54:08.864Z,108.15
2023-02-14T22:56:42.467Z,118.93
2023-02-14T22:59:22.360Z,125.65
2023-02-14T23:01:52.339Z,112.90
2023-02-14T23:04:24.923Z,100.60
2023-02-14T23:06:54.363Z,97.97
2023-02-14T23:09:24.050Z,91.43
2023-02-14T23:11:52.617Z,98.90
2023-02-14T23:14:21.154Z,107.20
2023-02-14T23:16:49.873Z,88.03
2023-02-14T23:19:26.858Z,83.63
2023-02-14T23:21:55.183Z,79.88
2023-02-14T23:24:24.476Z,72.60
2023-02-14T23:26:54.403Z,66.88
2023-02-14T23:29:22.982Z,65.22
2023-02-14T23:39:00.781Z,60.58
2023-02-14T23:43:57.258Z,54.88
2023-02-14T23:46:25.388Z,54.28
2023-02-14T23:48:53.644Z,52.88
2023-02-14T23:51:22.070Z,59.13
2023-02-14T23:53:50.543Z,64.90
2023-02-14T23:56:18.875Z,69.53
2023-02-14T23:58:47.142Z,68.10
